Terminal Aerodrome Forecast
Issued by NWS Wakefield, VA

Home | Current Version | Previous Version | Text Only | Print | Product List | Glossary On
Versions: 1 2 3 4 5 6 7 8 9 10 11 12 13 14 15 16
093
FTUS41 KAKQ 211729
TAFSBY
TAF
KSBY 211729Z 2118/2218 09008KT P6SM FEW040
     FM220500 11005KT P6SM FEW030 BKN100
     FM221100 12006KT 5SM BR BKN015
     FM221400 17006KT P6SM OVC030=

USA.gov is the U.S. government's official web portal to all federal, state and local government web resources and services.